KCLS

Chehalis-Centralia Airport

Chehalis, Washington, USA
METAR KCLS 190335Z AUTO 17008KT 10SM FEW020 SCT043 OVC050 05/05 A2981 RMK AO2
Observed Flight Rules
Jan-19 @ 03:35 UTC (15 minutes ago) Visual Flight Rules
Wind Visibility Clouds
170° at 8 knots 10 miles
  • Few at 2,000' AGL
  • Scattered at 4,300' AGL
  • Overcast at 5,000' AGL
Temperatures Readings
Current 5°C / 41°F
Dewpoint 5°C / 41°F
Humidity 100%
Altimeter 29.81" Hg
Pressure 1009 hPa
Elevation 54
METAR KCLS 190335Z AUTO 17008KT 10SM FEW020 SCT043 OVC050 05/05 A2981 RMK AO2
Observed Flight Rules
Jan-19 @ 03:35 UTC
(15 minutes ago)
VFR
Wind Visibility
170° at 8 knots 10 miles
Clouds
  • Few at 2,000' AGL
  • Scattered at 4,300' AGL
  • Overcast at 5,000' AGL
Temperature Dewpoint
5°C / 41°F 5°C / 41°F
Humidity Altimeter Pressure
100% 29.81" Hg 1009 hPa